Time;durP1;ratioP1;P1;durP2;ratioP2;P2;SDS_P1;SDS_P2;PMS_P1;PMS_P2;Temp;Humidity;BMP_temperature;BMP_pressure;BME280_temperature;BME280_humidity;BME280_pressure;Samples;Min_cycle;Max_cycle;Signal;HPM_P1;HPM_P2
2021/09/18 00:02:11;;;;;;;0.68;0.50;;;14.10;99.90;;;;;;5074761;28;20315;-59
2021/09/18 00:04:39;;;;;;;0.90;0.77;;;14.00;99.90;;;;;;5074985;28;20266;-59
2021/09/18 00:07:07;;;;;;;1.58;0.80;;;14.00;99.90;;;;;;5074273;28;20232;-60
2021/09/18 00:09:35;;;;;;;1.83;1.05;;;14.10;99.90;;;;;;5074487;28;20188;-59
2021/09/18 00:12:04;;;;;;;1.33;0.90;;;14.10;99.90;;;;;;5074653;28;20287;-60
2021/09/18 00:14:32;;;;;;;1.77;0.70;;;14.10;99.90;;;;;;5074678;28;20232;-60
2021/09/18 00:17:00;;;;;;;1.35;0.90;;;14.10;99.90;;;;;;5074395;28;20235;-60
2021/09/18 00:19:28;;;;;;;1.35;0.70;;;14.20;99.90;;;;;;5074577;28;20602;-60
2021/09/18 00:21:56;;;;;;;1.88;0.90;;;14.10;99.90;;;;;;5074408;28;20196;-60
2021/09/18 00:24:24;;;;;;;2.40;0.88;;;14.20;99.90;;;;;;5074121;28;20200;-61
2021/09/18 00:26:51;;;;;;;1.02;0.82;;;14.20;99.90;;;;;;5074431;28;20312;-62
2021/09/18 00:29:21;;;;;;;2.13;0.60;;;14.20;99.90;;;;;;5074470;28;20201;-60
2021/09/18 00:31:48;;;;;;;0.80;0.68;;;14.30;99.90;;;;;;5073974;28;20648;-60
2021/09/18 00:34:16;;;;;;;2.67;0.70;;;14.30;99.90;;;;;;5074207;28;20205;-59
2021/09/18 00:36:44;;;;;;;0.70;0.70;;;14.30;99.90;;;;;;5074100;28;20304;-59
2021/09/18 00:39:12;;;;;;;1.60;0.90;;;14.30;99.90;;;;;;5074073;28;20410;-60
2021/09/18 00:41:40;;;;;;;1.77;0.98;;;14.40;99.90;;;;;;5074145;28;20201;-60
2021/09/18 00:44:08;;;;;;;1.27;0.80;;;14.40;99.90;;;;;;5073774;28;20291;-60
2021/09/18 00:46:37;;;;;;;2.05;0.75;;;14.30;99.90;;;;;;5073743;28;20223;-61
2021/09/18 00:49:05;;;;;;;1.65;0.80;;;14.40;99.90;;;;;;5073880;28;20682;-60
2021/09/18 00:51:32;;;;;;;1.65;0.90;;;14.40;99.90;;;;;;5073755;28;20215;-61
2021/09/18 00:54:00;;;;;;;2.10;0.80;;;14.40;99.90;;;;;;5073802;28;20555;-59
2021/09/18 00:56:29;;;;;;;2.92;1.05;;;14.30;99.90;;;;;;5073872;28;20197;-60
2021/09/18 00:58:57;;;;;;;1.65;1.30;;;14.30;99.90;;;;;;5073426;28;20652;-61
2021/09/18 01:01:25;;;;;;;2.38;1.25;;;14.30;99.90;;;;;;5073402;28;20299;-60
2021/09/18 01:03:54;;;;;;;1.00;0.90;;;14.30;99.90;;;;;;5073432;28;20558;-60
2021/09/18 01:06:23;;;;;;;2.42;1.25;;;14.20;99.90;;;;;;5073365;28;20436;-61
2021/09/18 01:08:55;;;;;;;1.98;1.10;;;14.30;99.90;;;;;;5072665;28;20232;-60
2021/09/18 01:11:23;;;;;;;1.25;1.10;;;14.20;99.90;;;;;;5072543;28;20318;-60
2021/09/18 01:13:52;;;;;;;2.53;1.20;;;14.20;99.90;;;;;;5073369;28;20196;-59
2021/09/18 01:16:20;;;;;;;1.02;0.90;;;14.20;99.90;;;;;;5073402;28;20324;-61
2021/09/18 01:18:48;;;;;;;2.13;1.10;;;14.20;99.90;;;;;;5073338;28;20200;-59
2021/09/18 01:21:19;;;;;;;1.20;1.10;;;14.20;99.90;;;;;;5073307;28;20208;-60
2021/09/18 01:23:48;;;;;;;1.90;1.35;;;14.20;99.90;;;;;;5073139;28;20557;-59
2021/09/18 01:26:16;;;;;;;1.55;1.20;;;14.20;99.90;;;;;;5073202;28;20197;-61
2021/09/18 01:28:45;;;;;;;1.55;1.10;;;14.20;99.90;;;;;;5073153;28;20207;-60
2021/09/18 01:31:14;;;;;;;1.80;1.30;;;14.30;99.90;;;;;;5073179;28;20207;-59
2021/09/18 01:33:42;;;;;;;1.65;1.30;;;14.30;99.90;;;;;;5073084;28;20204;-60
2021/09/18 01:36:09;;;;;;;1.23;1.13;;;14.30;99.90;;;;;;5072851;28;20200;-60
2021/09/18 01:38:37;;;;;;;1.27;1.17;;;14.30;99.90;;;;;;5072697;28;20752;-59
2021/09/18 01:41:06;;;;;;;1.38;1.27;;;14.30;99.90;;;;;;5072983;28;20287;-60
2021/09/18 01:43:34;;;;;;;1.45;1.17;;;14.30;99.90;;;;;;5073055;28;20204;-60
2021/09/18 01:46:02;;;;;;;1.70;1.15;;;14.30;99.90;;;;;;5073109;28;20205;-60
2021/09/18 01:48:30;;;;;;;1.65;1.20;;;14.30;99.90;;;;;;5072830;28;20232;-60
2021/09/18 01:51:00;;;;;;;2.00;1.20;;;14.30;99.90;;;;;;5072752;28;20193;-59
2021/09/18 01:53:29;;;;;;;1.75;1.20;;;14.30;99.90;;;;;;5072155;28;20718;-59
2021/09/18 01:55:57;;;;;;;1.80;1.20;;;14.30;99.90;;;;;;5072462;28;20736;-60
2021/09/18 01:58:26;;;;;;;1.40;1.23;;;14.30;99.90;;;;;;5072552;28;20219;-61
2021/09/18 02:00:56;;;;;;;1.50;1.30;;;14.30;99.90;;;;;;5072367;28;20564;-60
2021/09/18 02:03:25;;;;;;;1.92;1.00;;;14.30;99.90;;;;;;5072749;28;20185;-60
2021/09/18 02:05:53;;;;;;;1.02;0.82;;;14.30;99.90;;;;;;5072754;28;20200;-60
2021/09/18 02:08:22;;;;;;;1.85;1.00;;;14.30;99.90;;;;;;5072113;28;20232;-60
2021/09/18 02:10:51;;;;;;;2.45;0.80;;;14.30;99.90;;;;;;5072347;28;20276;-59
2021/09/18 02:13:19;;;;;;;1.70;0.80;;;14.40;99.90;;;;;;5072600;28;20201;-60
2021/09/18 02:15:49;;;;;;;1.20;0.80;;;14.40;99.90;;;;;;5072297;28;20232;-60
2021/09/18 02:18:17;;;;;;;1.38;0.75;;;14.30;99.90;;;;;;5072274;28;20674;-60
2021/09/18 02:20:45;;;;;;;2.50;0.80;;;14.30;99.90;;;;;;5073346;28;20676;-59
2021/09/18 02:23:14;;;;;;;1.33;0.73;;;14.30;99.90;;;;;;5078720;28;20221;-61
2021/09/18 02:25:43;;;;;;;0.85;0.80;;;14.40;99.90;;;;;;5079134;28;20294;-60
2021/09/18 02:28:11;;;;;;;2.47;0.60;;;14.40;99.90;;;;;;5079203;28;20283;-60
2021/09/18 02:30:39;;;;;;;1.25;0.80;;;14.40;99.90;;;;;;5078853;28;20295;-60
2021/09/18 02:33:08;;;;;;;1.58;0.70;;;14.40;99.90;;;;;;5079131;28;20200;-59
2021/09/18 02:35:37;;;;;;;1.55;0.80;;;14.40;99.90;;;;;;5079137;28;20236;-60
2021/09/18 02:38:06;;;;;;;1.35;0.60;;;14.40;99.90;;;;;;5078796;28;20291;-60
2021/09/18 02:40:37;;;;;;;2.45;0.82;;;14.40;99.90;;;;;;5078766;28;20232;-59
2021/09/18 02:43:05;;;;;;;0.75;0.70;;;14.40;99.90;;;;;;5079003;28;20189;-59
2021/09/18 02:45:33;;;;;;;1.98;1.10;;;14.30;99.90;;;;;;5078821;28;20201;-59
2021/09/18 02:48:01;;;;;;;1.50;0.70;;;14.40;99.90;;;;;;5078699;28;20212;-59
2021/09/18 02:50:30;;;;;;;3.65;0.90;;;14.30;99.90;;;;;;5078929;28;20324;-61
2021/09/18 02:52:58;;;;;;;1.52;0.85;;;14.30;99.90;;;;;;5078870;28;20279;-61
2021/09/18 02:55:26;;;;;;;1.95;0.80;;;14.30;99.90;;;;;;5078807;28;20207;-59
2021/09/18 02:57:54;;;;;;;1.40;0.80;;;14.30;99.90;;;;;;5078787;28;20196;-59
2021/09/18 03:00:22;;;;;;;1.50;0.70;;;14.30;99.90;;;;;;5078812;28;20201;-60
2021/09/18 03:02:50;;;;;;;2.00;1.00;;;14.30;99.90;;;;;;5078689;28;20297;-60
2021/09/18 03:05:18;;;;;;;1.20;0.70;;;14.40;99.90;;;;;;5078342;28;20736;-59
2021/09/18 03:07:47;;;;;;;1.33;0.80;;;14.30;99.90;;;;;;5078178;28;20604;-61
2021/09/18 03:10:15;;;;;;;1.15;0.70;;;14.30;99.90;;;;;;5078542;28;20202;-60
2021/09/18 03:12:42;;;;;;;1.90;0.90;;;14.30;99.90;;;;;;5078493;28;20680;-60
2021/09/18 03:15:12;;;;;;;1.35;0.73;;;14.30;99.90;;;;;;5078721;28;20283;-60
2021/09/18 03:17:40;;;;;;;0.77;0.70;;;14.30;99.90;;;;;;5078672;28;20218;-60
2021/09/18 03:20:09;;;;;;;1.27;0.80;;;14.30;99.90;;;;;;5078422;28;20200;-59
2021/09/18 03:22:36;;;;;;;1.63;0.90;;;14.30;99.90;;;;;;5078275;28;20292;-59
2021/09/18 03:25:07;;;;;;;1.25;0.70;;;14.30;99.90;;;;;;5078679;28;20236;-60
2021/09/18 03:27:35;;;;;;;0.98;0.70;;;14.30;99.90;;;;;;5078715;28;20220;-59
2021/09/18 03:30:04;;;;;;;1.00;0.90;;;14.30;99.90;;;;;;5078752;28;20210;-60
2021/09/18 03:32:32;;;;;;;2.63;0.80;;;14.20;99.90;;;;;;5076730;28;20604;-60
2021/09/18 03:35:00;;;;;;;1.95;0.60;;;14.30;99.90;;;;;;5075322;28;20201;-59
2021/09/18 03:37:29;;;;;;;1.42;0.90;;;14.20;99.90;;;;;;5075086;28;20288;-60
2021/09/18 03:39:57;;;;;;;1.17;0.90;;;14.20;99.90;;;;;;5075289;28;20211;-60
2021/09/18 03:42:26;;;;;;;1.73;0.85;;;14.20;99.90;;;;;;5075260;28;20200;-59
2021/09/18 03:44:56;;;;;;;1.55;1.17;;;14.20;99.90;;;;;;5075384;28;20199;-59
2021/09/18 03:47:24;;;;;;;1.75;1.15;;;14.20;99.90;;;;;;5075286;28;20235;-60
2021/09/18 03:49:54;;;;;;;1.02;0.63;;;14.20;99.90;;;;;;5075285;28;20205;-60
2021/09/18 03:52:25;;;;;;;1.00;0.90;;;14.10;99.90;;;;;;5075357;28;20201;-60
2021/09/18 03:54:53;;;;;;;2.20;0.70;;;14.10;99.90;;;;;;5074969;28;20264;-59
2021/09/18 03:57:21;;;;;;;1.15;0.70;;;14.10;99.90;;;;;;5075031;28;20258;-60
2021/09/18 03:59:50;;;;;;;0.82;0.70;;;14.10;99.90;;;;;;5075065;28;20300;-61
2021/09/18 04:02:18;;;;;;;1.10;0.90;;;14.10;99.90;;;;;;5075045;28;20197;-60
2021/09/18 04:04:46;;;;;;;1.15;0.80;;;14.00;99.90;;;;;;5074945;28;20295;-60
2021/09/18 04:07:14;;;;;;;1.85;0.90;;;14.00;99.90;;;;;;5074336;28;20236;-61
2021/09/18 04:09:42;;;;;;;1.55;0.88;;;14.00;99.90;;;;;;5074742;28;20207;-60
2021/09/18 04:12:10;;;;;;;1.90;1.30;;;14.00;99.90;;;;;;5074673;28;20203;-59
2021/09/18 04:14:38;;;;;;;0.93;0.80;;;14.00;99.90;;;;;;5074533;28;20667;-60
2021/09/18 04:17:07;;;;;;;1.63;0.98;;;14.00;99.90;;;;;;5074714;28;20568;-59
2021/09/18 04:19:35;;;;;;;1.17;0.90;;;14.00;99.90;;;;;;5074589;28;20291;-59
2021/09/18 04:22:03;;;;;;;1.73;1.00;;;14.00;99.90;;;;;;5074224;28;20199;-60
2021/09/18 04:24:35;;;;;;;1.23;1.05;;;14.00;99.90;;;;;;5074495;28;20185;-59
2021/09/18 04:27:03;;;;;;;0.82;0.70;;;14.00;99.90;;;;;;5074512;28;20211;-60
2021/09/18 04:29:32;;;;;;;1.00;0.90;;;14.00;99.90;;;;;;5074372;28;20220;-61
2021/09/18 04:32:00;;;;;;;1.60;0.80;;;14.00;99.90;;;;;;5074276;28;20197;-59
2021/09/18 04:34:29;;;;;;;1.00;0.90;;;14.00;99.90;;;;;;5074101;28;20699;-60
2021/09/18 04:36:57;;;;;;;1.27;1.00;;;14.00;99.90;;;;;;5073838;28;20211;-59
2021/09/18 04:39:26;;;;;;;1.02;0.95;;;14.00;99.90;;;;;;5073721;28;20272;-59
2021/09/18 04:41:53;;;;;;;2.10;0.98;;;14.00;99.90;;;;;;5073727;28;20201;-59
2021/09/18 04:44:21;;;;;;;1.55;0.80;;;14.00;99.90;;;;;;5073677;28;20226;-59
2021/09/18 04:46:49;;;;;;;0.90;0.80;;;14.00;99.90;;;;;;5073752;28;20649;-60
2021/09/18 04:49:17;;;;;;;1.38;0.77;;;14.00;99.90;;;;;;5073755;28;20286;-60
2021/09/18 04:51:46;;;;;;;1.17;0.90;;;13.90;99.90;;;;;;5073512;28;20200;-60
2021/09/18 04:54:14;;;;;;;1.40;0.90;;;13.90;99.90;;;;;;5073698;28;20223;-60
2021/09/18 04:56:42;;;;;;;1.33;0.90;;;13.90;99.90;;;;;;5073732;28;20289;-59
2021/09/18 04:59:10;;;;;;;2.75;1.00;;;13.90;99.90;;;;;;5073487;28;20312;-60
2021/09/18 05:01:37;;;;;;;1.73;1.10;;;13.90;99.90;;;;;;5073418;28;21012;-59
2021/09/18 05:04:05;;;;;;;1.10;1.00;;;13.90;99.90;;;;;;5073584;28;20211;-60
2021/09/18 05:06:34;;;;;;;2.53;1.00;;;13.90;99.90;;;;;;5073472;28;20287;-60
2021/09/18 05:09:03;;;;;;;1.02;0.82;;;13.90;99.90;;;;;;5072906;28;20232;-61
2021/09/18 05:11:31;;;;;;;0.80;0.80;;;13.90;99.90;;;;;;5073475;28;20205;-59
2021/09/18 05:13:59;;;;;;;2.35;1.30;;;13.90;99.90;;;;;;5073332;28;20201;-60
2021/09/18 05:16:27;;;;;;;0.98;0.93;;;13.90;99.90;;;;;;5073361;28;20288;-60
2021/09/18 05:18:55;;;;;;;1.40;1.00;;;13.90;99.90;;;;;;5073325;28;20204;-59
2021/09/18 05:21:23;;;;;;;2.03;1.15;;;13.90;99.90;;;;;;5073151;28;20223;-60
2021/09/18 05:23:50;;;;;;;1.90;0.93;;;13.90;99.90;;;;;;5073052;28;20223;-60
2021/09/18 05:26:19;;;;;;;1.30;0.95;;;13.90;99.90;;;;;;5072923;28;20213;-60
2021/09/18 05:28:47;;;;;;;1.02;0.90;;;13.90;99.90;;;;;;5072931;28;20220;-61
2021/09/18 05:31:15;;;;;;;1.05;1.00;;;14.00;99.90;;;;;;5072860;28;20582;-61
2021/09/18 05:33:43;;;;;;;2.28;1.00;;;14.00;99.90;;;;;;5072704;28;20632;-61
2021/09/18 05:36:11;;;;;;;0.90;0.80;;;14.10;99.90;;;;;;5072787;28;20197;-60
2021/09/18 05:38:38;;;;;;;1.75;0.93;;;14.10;99.90;;;;;;5072431;28;20204;-61
2021/09/18 05:41:06;;;;;;;2.63;1.20;;;14.10;99.90;;;;;;5072786;28;20582;-60
2021/09/18 05:43:35;;;;;;;3.65;1.00;;;14.20;99.90;;;;;;5072713;28;20657;-59
2021/09/18 05:46:03;;;;;;;1.20;1.10;;;14.30;99.90;;;;;;5072963;28;20293;-60
2021/09/18 05:48:31;;;;;;;1.70;0.90;;;14.30;99.90;;;;;;5072786;28;20200;-59
2021/09/18 05:50:59;;;;;;;1.65;1.17;;;14.40;99.90;;;;;;5072631;28;20295;-59
2021/09/18 05:53:27;;;;;;;2.97;1.00;;;14.30;99.90;;;;;;5072140;28;20854;-60
2021/09/18 05:55:55;;;;;;;3.63;1.17;;;14.40;99.90;;;;;;5072130;28;20207;-60
2021/09/18 05:58:23;;;;;;;1.73;1.00;;;14.40;99.90;;;;;;5072590;28;20201;-60
2021/09/18 06:00:52;;;;;;;2.40;0.93;;;14.30;99.90;;;;;;5072282;28;20691;-61
2021/09/18 06:03:20;;;;;;;1.33;0.90;;;14.30;99.90;;;;;;5072357;28;20207;-60
2021/09/18 06:05:48;;;;;;;1.30;1.10;;;14.30;99.90;;;;;;5072383;28;20311;-61
2021/09/18 06:08:16;;;;;;;1.42;0.82;;;14.30;99.90;;;;;;5072153;28;20625;-60
2021/09/18 06:10:44;;;;;;;1.85;0.90;;;14.40;99.90;;;;;;5072053;28;20269;-59
2021/09/18 06:13:12;;;;;;;1.10;1.00;;;14.40;99.90;;;;;;5072155;28;20204;-60
2021/09/18 06:15:40;;;;;;;1.55;0.77;;;14.40;99.90;;;;;;5072402;28;20280;-59
2021/09/18 06:18:09;;;;;;;1.45;0.88;;;14.40;99.90;;;;;;5072385;28;20203;-59
2021/09/18 06:20:37;;;;;;;2.40;1.05;;;14.50;99.90;;;;;;5072503;28;20617;-59
2021/09/18 06:23:05;;;;;;;2.70;0.82;;;14.50;99.90;;;;;;5072509;28;20296;-60
2021/09/18 06:25:33;;;;;;;1.10;0.75;;;14.60;99.90;;;;;;5072407;28;20200;-58
2021/09/18 06:28:00;;;;;;;1.75;0.82;;;14.60;99.90;;;;;;5072281;28;20204;-60
2021/09/18 06:30:28;;;;;;;1.75;0.90;;;14.70;99.90;;;;;;5072411;28;20216;-60
2021/09/18 06:32:56;;;;;;;0.80;0.80;;;14.70;99.90;;;;;;5072287;28;20218;-59
2021/09/18 06:35:25;;;;;;;2.65;0.90;;;14.70;99.90;;;;;;5072148;28;20660;-60
2021/09/18 06:37:53;;;;;;;2.78;1.10;;;14.80;99.90;;;;;;5072238;28;20206;-60
2021/09/18 06:40:21;;;;;;;1.95;1.00;;;14.80;99.90;;;;;;5071827;28;20197;-59
2021/09/18 06:42:49;;;;;;;3.03;1.35;;;15.00;99.90;;;;;;5071992;28;20204;-60
2021/09/18 06:45:17;;;;;;;1.08;0.98;;;15.10;99.90;;;;;;5072198;28;20320;-60
2021/09/18 06:47:45;;;;;;;1.83;0.88;;;15.20;99.90;;;;;;5072176;28;20236;-60
2021/09/18 06:50:14;;;;;;;1.83;1.08;;;15.20;99.90;;;;;;5071976;28;20217;-60
2021/09/18 06:52:43;;;;;;;2.38;1.30;;;15.20;99.90;;;;;;5072081;28;20196;-60
2021/09/18 06:55:10;;;;;;;1.00;0.90;;;15.20;99.90;;;;;;5071769;28;20197;-59
2021/09/18 06:57:38;;;;;;;2.72;1.02;;;15.20;99.90;;;;;;5072249;28;20200;-61
2021/09/18 07:00:08;;;;;;;1.75;1.13;;;15.30;99.90;;;;;;5071698;28;20232;-60
2021/09/18 07:02:36;;;;;;;2.50;1.05;;;15.40;99.90;;;;;;5071656;28;20279;-60
2021/09/18 07:05:06;;;;;;;3.38;1.15;;;15.40;99.90;;;;;;5072071;28;20264;-60
2021/09/18 07:07:33;;;;;;;2.20;1.20;;;15.40;99.90;;;;;;5078787;28;20318;-61
2021/09/18 07:10:04;;;;;;;1.80;1.10;;;15.50;99.90;;;;;;5095738;28;20223;-60
2021/09/18 07:12:32;;;;;;;1.95;1.02;;;15.50;99.90;;;;;;5095834;28;20642;-60
2021/09/18 07:15:01;;;;;;;1.20;1.00;;;15.50;99.90;;;;;;5095956;28;20206;-60
2021/09/18 07:17:29;;;;;;;1.40;1.10;;;15.60;99.90;;;;;;5095952;28;20613;-59
2021/09/18 07:19:58;;;;;;;3.28;1.63;;;15.70;99.90;;;;;;5095924;28;20199;-60
2021/09/18 07:22:25;;;;;;;1.95;1.30;;;15.70;99.90;;;;;;5095782;28;20200;-60
2021/09/18 07:24:54;;;;;;;2.55;1.20;;;15.80;99.90;;;;;;5095492;28;20302;-60
2021/09/18 07:27:23;;;;;;;1.48;1.20;;;15.70;99.90;;;;;;5095759;28;20322;-60
2021/09/18 07:29:51;;;;;;;2.78;1.30;;;15.70;99.90;;;;;;5094894;28;20316;-60
2021/09/18 07:32:20;;;;;;;2.00;1.10;;;15.70;99.90;;;;;;5095185;28;20200;-60
2021/09/18 07:34:47;;;;;;;2.70;1.45;;;15.70;99.90;;;;;;5095624;28;20207;-61
2021/09/18 07:37:15;;;;;;;3.63;1.50;;;15.70;99.90;;;;;;5095276;28;20197;-60
2021/09/18 07:39:44;;;;;;;1.75;1.40;;;15.60;99.90;;;;;;5095493;28;20267;-60
2021/09/18 07:42:11;;;;;;;2.67;1.63;;;15.70;99.90;;;;;;5095613;28;20626;-60
2021/09/18 07:44:40;;;;;;;4.32;1.42;;;15.60;99.90;;;;;;5095600;28;20303;-60
2021/09/18 07:47:08;;;;;;;2.03;1.35;;;15.60;99.90;;;;;;5095389;28;20214;-61
2021/09/18 07:49:36;;;;;;;2.17;1.60;;;15.50;99.90;;;;;;5095472;28;20196;-61
2021/09/18 07:52:05;;;;;;;2.55;1.70;;;15.40;99.90;;;;;;5095340;28;20200;-60
2021/09/18 07:54:33;;;;;;;2.47;1.80;;;15.40;99.90;;;;;;5095274;28;20268;-60
2021/09/18 07:57:21;;;;;;;1.85;1.63;;;15.60;99.90;;;;;;5095037;28;20207;-61
2021/09/18 07:59:51;;;;;;;1.88;1.70;;;15.60;99.90;;;;;;5095089;28;20200;-61
2021/09/18 08:02:19;;;;;;;3.13;1.90;;;15.70;99.90;;;;;;5094994;28;20206;-60
2021/09/18 08:04:47;;;;;;;3.00;1.80;;;15.60;99.90;;;;;;5095227;28;20200;-60
2021/09/18 08:07:17;;;;;;;2.33;1.60;;;15.60;99.90;;;;;;5078838;28;20359;-60
2021/09/18 08:09:45;;;;;;;3.78;2.08;;;15.60;99.90;;;;;;5052998;28;20225;-60
2021/09/18 08:12:14;;;;;;;1.92;1.73;;;15.50;99.90;;;;;;5049956;28;20200;-60
2021/09/18 08:14:42;;;;;;;2.75;2.30;;;15.40;99.90;;;;;;5054337;28;20300;-60
2021/09/18 08:17:11;;;;;;;3.60;2.40;;;15.20;99.90;;;;;;5054523;28;20205;-60
2021/09/18 08:19:39;;;;;;;3.63;2.15;;;15.10;99.90;;;;;;5053596;28;20205;-60
2021/09/18 08:22:06;;;;;;;3.00;2.15;;;15.10;99.90;;;;;;5048550;28;20205;-61
2021/09/18 08:24:34;;;;;;;2.80;2.22;;;15.20;99.90;;;;;;5054294;28;20292;-60
2021/09/18 08:27:02;;;;;;;3.90;2.38;;;15.10;99.90;;;;;;5054361;28;20220;-60
2021/09/18 08:29:30;;;;;;;4.95;3.15;;;15.20;99.90;;;;;;5053441;28;20737;-59
2021/09/18 08:31:58;;;;;;;3.60;2.92;;;15.30;99.90;;;;;;5054013;28;20253;-59
2021/09/18 08:34:52;;;;;;;3.65;3.40;;;15.40;99.90;;;;;;5052825;28;20216;-58
2021/09/18 08:37:20;;;;;;;3.67;3.38;;;15.40;99.90;;;;;;5039634;28;20191;-59
2021/09/18 08:39:48;;;;;;;4.07;3.65;;;15.50;99.90;;;;;;5052521;28;20288;-59
2021/09/18 08:45:26;;;;;;;3.58;3.28;;;15.50;99.90;;;;;;5043414;28;20293;-61
2021/09/18 08:47:54;;;;;;;4.78;4.38;;;15.60;99.90;;;;;;5053427;28;20215;-61
2021/09/18 08:50:24;;;;;;;4.40;4.10;;;15.70;99.90;;;;;;5053393;28;20240;-61
2021/09/18 08:52:53;;;;;;;4.20;3.90;;;15.80;99.90;;;;;;5053649;28;20299;-60
2021/09/18 08:55:22;;;;;;;4.40;4.00;;;15.80;99.90;;;;;;5053309;28;20205;-60
2021/09/18 08:57:50;;;;;;;4.38;4.00;;;16.00;99.90;;;;;;5053507;28;20211;-60
2021/09/18 09:00:44;;;;;;;4.75;4.38;;;16.10;99.90;;;;;;5053127;28;20205;-61
2021/09/18 09:03:13;;;;;;;4.30;4.00;;;16.20;99.90;;;;;;5053411;28;20236;-61
2021/09/18 09:05:45;;;;;;;4.57;4.28;;;16.20;99.90;;;;;;5053386;28;20212;-61
2021/09/18 09:08:15;;;;;;;3.78;3.47;;;16.20;99.90;;;;;;5070941;28;20245;-61
2021/09/18 09:10:45;;;;;;;3.92;3.63;;;16.30;99.90;;;;;;5093400;28;20220;-61
2021/09/18 09:13:16;;;;;;;4.38;4.00;;;16.30;99.90;;;;;;5093491;28;20615;-61
2021/09/18 09:15:45;;;;;;;3.63;3.28;;;16.30;99.90;;;;;;5085100;28;20617;-60
2021/09/18 09:18:22;;;;;;;3.78;3.47;;;16.40;99.90;;;;;;5072995;28;20236;-62
2021/09/18 09:21:16;;;;;;;3.97;3.67;;;16.30;99.90;;;;;;5073166;28;20181;-61
2021/09/18 09:24:04;;;;;;;4.00;3.70;;;16.10;99.90;;;;;;5073117;28;20196;-60
2021/09/18 09:26:32;;;;;;;3.67;3.47;;;16.10;99.90;;;;;;5072764;28;20199;-60
2021/09/18 09:29:00;;;;;;;3.80;3.50;;;16.00;99.90;;;;;;5073054;28;20200;-61
2021/09/18 09:31:29;;;;;;;3.70;3.40;;;15.90;99.90;;;;;;5071850;28;20226;-61
2021/09/18 09:34:16;;;;;;;4.43;4.00;;;15.80;99.90;;;;;;5072706;28;20212;-61
2021/09/18 09:36:47;;;;;;;3.97;3.58;;;15.70;99.90;;;;;;5073002;28;20280;-61
2021/09/18 09:39:17;;;;;;;3.40;3.15;;;15.70;99.90;;;;;;5072685;28;20185;-60
2021/09/18 09:41:47;;;;;;;4.53;3.60;;;15.70;99.90;;;;;;5072662;28;20280;-60
2021/09/18 09:44:17;;;;;;;3.30;3.08;;;15.60;99.90;;;;;;5072366;28;20644;-61
2021/09/18 09:46:59;;;;;;;3.38;3.00;;;15.60;99.90;;;;;;5072252;28;20576;-61
2021/09/18 09:49:43;;;;;;;3.63;3.33;;;15.70;99.90;;;;;;5072846;28;20267;-61
2021/09/18 09:52:20;;;;;;;3.28;2.97;;;15.70;99.90;;;;;;5072613;28;20240;-60
2021/09/18 09:54:49;;;;;;;3.28;3.08;;;15.70;99.90;;;;;;5072354;28;20191;-62
2021/09/18 09:57:17;;;;;;;2.63;2.42;;;15.60;99.90;;;;;;5072583;28;20209;-61
2021/09/18 09:59:45;;;;;;;2.90;2.60;;;15.60;99.90;;;;;;5072576;28;20301;-61
2021/09/18 10:02:14;;;;;;;3.00;2.80;;;15.70;99.90;;;;;;5072388;28;20205;-61
2021/09/18 10:04:43;;;;;;;3.50;3.20;;;15.90;99.90;;;;;;5072683;28;20594;-60
2021/09/18 10:07:11;;;;;;;2.65;2.42;;;15.80;99.90;;;;;;5072133;28;20243;-60
2021/09/18 10:09:41;;;;;;;1.98;1.88;;;15.90;99.90;;;;;;5068880;28;20242;-60
2021/09/18 10:12:13;;;;;;;2.60;2.40;;;15.90;99.90;;;;;;5072028;28;20727;-61
2021/09/18 10:14:46;;;;;;;2.40;2.20;;;15.90;99.90;;;;;;5071855;28;20633;-60
2021/09/18 10:17:14;;;;;;;2.60;2.40;;;15.90;99.90;;;;;;5051966;28;20264;-61
2021/09/18 10:25:19;;;;;;;3.05;2.85;;;15.60;99.90;;;;;;5051817;28;20188;-61
2021/09/18 10:28:04;;;;;;;3.50;3.30;;;15.40;99.90;;;;;;5051995;28;20203;-60
2021/09/18 10:30:35;;;;;;;3.45;3.17;;;15.30;99.90;;;;;;5051677;28;20189;-61
2021/09/18 10:33:04;;;;;;;4.10;3.80;;;15.20;99.90;;;;;;5052047;28;20240;-61
2021/09/18 10:35:33;;;;;;;3.95;3.65;;;15.20;99.90;;;;;;5051854;28;20209;-60
2021/09/18 10:38:22;;;;;;;3.85;3.55;;;15.20;99.90;;;;;;5051940;28;20192;-61
2021/09/18 10:41:01;;;;;;;4.15;3.85;;;15.20;99.90;;;;;;5052225;28;20192;-62
2021/09/18 10:43:31;;;;;;;4.40;3.47;;;15.30;99.90;;;;;;5055624;28;20185;-61
2021/09/18 10:46:00;;;;;;;4.75;4.30;;;15.30;99.90;;;;;;5075880;28;20222;-61
2021/09/18 10:48:50;;;;;;;4.40;4.00;;;15.40;99.90;;;;;;5075938;28;20209;-61
2021/09/18 10:51:35;;;;;;;4.15;3.85;;;15.50;99.90;;;;;;5069769;28;20255;-61
2021/09/18 10:54:12;;;;;;;5.40;5.00;;;15.50;99.90;;;;;;5075835;28;20192;-61
2021/09/18 10:56:58;;;;;;;5.10;4.60;;;15.70;99.90;;;;;;5076033;28;20224;-61
2021/09/18 10:59:46;;;;;;;6.03;5.50;;;15.70;99.90;;;;;;5076156;28;20181;-61
2021/09/18 11:02:45;;;;;;;5.97;5.43;;;15.90;99.90;;;;;;5075908;28;20207;-61
2021/09/18 11:05:56;;;;;;;6.95;6.32;;;16.00;99.90;;;;;;5075632;28;20281;-60
2021/09/18 11:08:29;;;;;;;6.47;5.88;;;16.10;99.90;;;;;;5082491;28;20278;-60
2021/09/18 11:11:00;;;;;;;6.95;6.25;;;16.10;99.90;;;;;;5096006;28;20279;-61
2021/09/18 11:13:34;;;;;;;6.65;6.00;;;16.00;99.90;;;;;;5095981;28;20298;-61
2021/09/18 11:16:17;;;;;;;7.35;6.63;;;16.10;99.90;;;;;;5095423;28;20196;-61
2021/09/18 11:18:50;;;;;;;8.98;7.10;;;16.20;99.90;;;;;;5095447;28;20184;-61
2021/09/18 11:21:21;;;;;;;7.65;6.93;;;16.30;99.90;;;;;;5095765;28;20184;-61
2021/09/18 11:23:52;;;;;;;7.32;6.63;;;16.40;99.90;;;;;;5095350;28;20190;-61
2021/09/18 11:26:31;;;;;;;6.90;6.30;;;16.50;99.90;;;;;;5095645;28;20550;-61
2021/09/18 11:29:10;;;;;;;7.43;6.43;;;16.70;99.90;;;;;;5095536;28;20662;-62
2021/09/18 11:31:40;;;;;;;6.53;5.93;;;16.70;99.90;;;;;;5095593;28;20195;-61
2021/09/18 11:34:08;;;;;;;7.50;6.80;;;16.60;99.90;;;;;;5095938;28;20235;-62
2021/09/18 11:36:46;;;;;;;6.93;6.28;;;16.60;99.90;;;;;;5095299;28;20735;-61
2021/09/18 11:39:14;;;;;;;6.97;6.28;;;16.50;99.90;;;;;;5095547;28;20606;-61
2021/09/18 11:41:41;;;;;;;8.00;7.30;;;16.60;99.90;;;;;;5095197;28;20659;-61
2021/09/18 11:44:12;;;;;;;8.15;7.45;;;16.60;99.90;;;;;;5095480;28;20200;-61
2021/09/18 11:46:40;;;;;;;8.40;7.60;;;16.50;99.90;;;;;;5095244;28;20224;-61
2021/09/18 11:49:08;;;;;;;8.50;7.60;;;16.60;99.90;;;;;;5095244;28;20291;-60
2021/09/18 11:51:36;;;;;;;8.05;7.35;;;16.50;99.90;;;;;;5095000;28;20724;-61
2021/09/18 11:54:05;;;;;;;8.80;7.90;;;16.50;99.90;;;;;;5094268;28;20223;-61
2021/09/18 11:56:34;;;;;;;8.38;7.68;;;16.50;99.90;;;;;;5094966;28;20203;-60
2021/09/18 11:59:08;;;;;;;8.63;7.82;;;16.50;99.90;;;;;;5094965;28;20685;-60
2021/09/18 12:01:38;;;;;;;8.88;8.07;;;16.50;99.90;;;;;;5094970;28;20211;-61
2021/09/18 12:04:06;;;;;;;8.27;7.47;;;16.70;99.90;;;;;;5094980;28;20184;-61
2021/09/18 12:06:35;;;;;;;8.13;7.43;;;16.80;99.90;;;;;;5094741;28;20208;-62
2021/09/18 12:09:03;;;;;;;7.28;6.68;;;17.10;99.90;;;;;;5094347;28;20347;-61
2021/09/18 12:11:38;;;;;;;7.28;6.68;;;17.20;99.90;;;;;;5094727;28;20206;-60
2021/09/18 12:14:05;;;;;;;5.88;5.38;;;17.30;99.90;;;;;;5094569;28;20294;-61
2021/09/18 12:16:37;;;;;;;7.10;6.38;;;17.60;99.90;;;;;;5094252;28;20204;-60
2021/09/18 12:19:05;;;;;;;7.07;6.20;;;17.70;99.90;;;;;;5094889;28;20206;-75
2021/09/18 12:21:34;;;;;;;6.90;6.32;;;17.70;99.90;;;;;;5094234;28;20208;-75
2021/09/18 12:24:05;;;;;;;6.38;5.88;;;17.70;99.90;;;;;;5094719;28;20277;-74
2021/09/18 12:26:34;;;;;;;6.50;6.00;;;17.80;99.90;;;;;;5094420;28;20291;-74
2021/09/18 12:29:08;;;;;;;5.85;5.35;;;17.80;99.90;;;;;;5094386;28;20235;-76
2021/09/18 12:31:38;;;;;;;6.60;6.00;;;17.80;99.90;;;;;;5094464;28;20263;-77
2021/09/18 12:34:08;;;;;;;5.90;5.30;;;17.90;99.90;;;;;;5094059;28;20219;-74
2021/09/18 12:36:37;;;;;;;5.72;5.28;;;17.90;99.90;;;;;;5094427;28;20210;-74
2021/09/18 12:39:07;;;;;;;5.95;5.45;;;18.00;99.90;;;;;;5094716;28;20453;-73
2021/09/18 12:41:37;;;;;;;6.90;6.20;;;18.20;99.90;;;;;;5095234;28;20227;-74
2021/09/18 12:44:07;;;;;;;6.30;5.72;;;18.40;99.90;;;;;;5095295;28;20196;-73
2021/09/18 12:46:41;;;;;;;6.40;5.90;;;18.40;99.90;;;;;;5094543;28;20698;-74
2021/09/18 12:49:11;;;;;;;7.03;6.43;;;18.40;99.90;;;;;;5094248;28;20644;-74
2021/09/18 12:51:41;;;;;;;7.40;6.80;;;18.30;99.90;;;;;;5094068;28;20261;-74
2021/09/18 12:54:16;;;;;;;7.13;6.53;;;18.30;99.90;;;;;;5094333;28;20299;-75
2021/09/18 12:56:44;;;;;;;6.38;5.88;;;18.10;99.90;;;;;;5093867;28;20230;-73
2021/09/18 12:59:15;;;;;;;8.10;7.40;;;17.90;99.90;;;;;;5093995;28;20299;-73
2021/09/18 13:01:46;;;;;;;7.88;7.18;;;17.70;99.90;;;;;;5094124;28;20267;-74
2021/09/18 13:04:17;;;;;;;7.50;6.88;;;17.60;99.90;;;;;;5094001;28;20207;-75
2021/09/18 13:06:57;;;;;;;7.95;7.25;;;17.40;99.90;;;;;;5093633;28;20206;-74
2021/09/18 13:09:31;;;;;;;8.60;7.80;;;17.30;99.90;;;;;;5094035;28;20192;-73
2021/09/18 13:12:01;;;;;;;8.70;7.90;;;17.30;99.90;;;;;;5093948;28;20286;-73